createdAt,value
2018-05-12T00:00:37.273Z,27.63
2018-05-12T00:03:05.394Z,28.63
2018-05-12T00:18:27.899Z,29.20
2018-05-12T00:20:55.393Z,33.47
2018-05-12T00:23:22.870Z,28.97
2018-05-12T00:25:50.359Z,31.23
2018-05-12T00:28:17.863Z,31.73
2018-05-12T00:30:45.377Z,29.80
2018-05-12T00:33:12.858Z,34.10
2018-05-12T00:35:40.345Z,33.27
2018-05-12T00:38:07.826Z,32.37
2018-05-12T00:40:35.315Z,37.60
2018-05-12T00:43:02.822Z,33.20
2018-05-12T00:45:30.307Z,43.30
2018-05-12T00:47:57.870Z,32.37
2018-05-12T00:50:25.345Z,37.67
2018-05-12T00:52:52.830Z,35.47
2018-05-12T00:55:20.307Z,31.83
2018-05-12T00:57:47.811Z,33.27
2018-05-12T01:00:15.281Z,38.33
2018-05-12T01:02:42.741Z,38.60
2018-05-12T01:05:10.211Z,34.20
2018-05-12T01:07:37.756Z,36.43
2018-05-12T01:10:05.258Z,38.00
2018-05-12T01:12:32.744Z,38.20
2018-05-12T01:15:00.235Z,33.87
2018-05-12T01:17:27.715Z,32.17
2018-05-12T01:19:55.374Z,38.10
2018-05-12T01:22:22.855Z,35.87
2018-05-12T01:24:50.313Z,35.40
2018-05-12T01:27:17.798Z,35.07
2018-05-12T01:29:45.350Z,35.30
2018-05-12T01:32:12.819Z,40.17
2018-05-12T01:34:40.298Z,45.03
2018-05-12T01:37:07.772Z,37.90
2018-05-12T01:39:35.452Z,39.37
2018-05-12T01:42:02.924Z,41.00
2018-05-12T01:44:30.412Z,41.00
2018-05-12T01:46:57.865Z,33.73
2018-05-12T01:49:25.334Z,36.80
2018-05-12T01:51:52.803Z,45.70
2018-05-12T01:54:20.263Z,40.67
2018-05-12T01:56:47.744Z,39.90
2018-05-12T01:59:15.256Z,39.50
2018-05-12T02:01:42.775Z,43.50
2018-05-12T02:04:10.343Z,37.33
2018-05-12T02:06:37.810Z,41.90
2018-05-12T02:09:05.281Z,42.60
2018-05-12T02:11:32.758Z,47.03
2018-05-12T02:14:00.213Z,42.60
2018-05-12T02:16:27.704Z,42.20
2018-05-12T02:18:55.170Z,42.23
2018-05-12T02:21:22.634Z,44.70
2018-05-12T02:23:50.123Z,43.00
2018-05-12T02:26:17.598Z,49.90
2018-05-12T02:28:45.050Z,52.77
2018-05-12T02:31:12.535Z,44.50
2018-05-12T02:33:40.022Z,46.30
2018-05-12T02:36:07.604Z,45.53
2018-05-12T02:38:35.075Z,50.50
2018-05-12T02:41:02.552Z,52.27
2018-05-12T02:43:30.030Z,53.90
2018-05-12T02:45:57.507Z,51.10
2018-05-12T02:48:25.009Z,45.37
2018-05-12T02:50:52.478Z,45.20
2018-05-12T02:53:19.938Z,42.40
2018-05-12T02:55:47.411Z,48.60
2018-05-12T02:58:14.900Z,46.43
2018-05-12T03:00:48.122Z,47.53
2018-05-12T03:03:15.586Z,43.20
2018-05-12T03:05:43.066Z,46.10
2018-05-12T03:08:10.564Z,40.30
2018-05-12T03:10:38.036Z,40.20
2018-05-12T03:13:05.498Z,39.00
2018-05-12T03:15:32.975Z,42.00
2018-05-12T03:18:00.450Z,41.50
2018-05-12T03:20:27.942Z,36.83
2018-05-12T03:22:55.479Z,42.03
2018-05-12T03:25:22.976Z,39.20
2018-05-12T03:27:50.440Z,36.00
2018-05-12T03:30:17.941Z,37.23
2018-05-12T03:32:45.429Z,37.20
2018-05-12T03:35:13.065Z,43.17
2018-05-12T03:37:40.537Z,36.40
2018-05-12T03:40:08.016Z,44.23
2018-05-12T03:42:35.476Z,39.27
2018-05-12T03:45:02.955Z,34.63
2018-05-12T03:47:30.431Z,40.60
2018-05-12T03:49:57.882Z,33.73
2018-05-12T03:52:25.369Z,34.77
2018-05-12T03:54:52.842Z,40.90
2018-05-12T03:57:20.294Z,35.80
2018-05-12T03:59:47.776Z,33.67
2018-05-12T04:02:15.239Z,34.83
2018-05-12T04:04:54.510Z,37.30
2018-05-12T04:07:33.680Z,33.10
2018-05-12T04:10:13.891Z,35.10
2018-05-12T04:12:41.342Z,37.07
2018-05-12T04:15:08.806Z,31.93
2018-05-12T04:17:36.280Z,34.23
2018-05-12T04:20:03.803Z,31.30
2018-05-12T04:22:31.286Z,31.40
2018-05-12T04:24:58.753Z,29.80
2018-05-12T04:27:26.250Z,35.63
2018-05-12T04:29:53.762Z,29.53
2018-05-12T04:32:21.219Z,30.10
2018-05-12T04:34:48.684Z,29.10
2018-05-12T04:37:16.167Z,31.63
2018-05-12T04:39:43.679Z,29.43
2018-05-12T04:42:11.163Z,28.80
2018-05-12T04:44:38.762Z,34.27
2018-05-12T04:47:06.169Z,31.33
2018-05-12T04:49:33.652Z,27.97
2018-05-12T04:52:01.197Z,26.87
2018-05-12T04:54:28.657Z,31.80
2018-05-12T04:56:56.403Z,27.67
2018-05-12T04:59:23.904Z,29.27
2018-05-12T05:01:51.360Z,30.10
2018-05-12T05:04:18.837Z,26.90
2018-05-12T05:06:46.306Z,24.87
2018-05-12T05:09:13.794Z,27.57
2018-05-12T05:11:41.353Z,28.60
2018-05-12T05:14:08.807Z,25.20
2018-05-12T05:16:36.281Z,25.83
2018-05-12T05:19:03.761Z,24.83
2018-05-12T05:21:31.231Z,27.20
2018-05-12T05:23:58.734Z,30.80
2018-05-12T05:26:26.217Z,26.40
2018-05-12T05:28:53.679Z,28.77
2018-05-12T05:31:21.191Z,25.93
2018-05-12T05:33:48.670Z,29.37
2018-05-12T05:36:16.150Z,25.77
2018-05-12T05:38:43.639Z,29.17
2018-05-12T05:41:11.151Z,23.83
2018-05-12T05:43:38.616Z,25.80
2018-05-12T05:46:06.133Z,24.60
2018-05-12T05:48:33.600Z,23.47
2018-05-12T05:51:01.128Z,29.77
2018-05-12T05:53:28.610Z,26.63
2018-05-12T05:55:56.083Z,25.13
2018-05-12T05:58:23.545Z,25.93
2018-05-12T06:00:51.026Z,26.03
2018-05-12T06:03:18.486Z,21.87
2018-05-12T06:05:45.968Z,31.67
2018-05-12T06:08:13.496Z,20.17
2018-05-12T06:10:40.985Z,25.85
2018-05-12T06:13:08.444Z,22.27
2018-05-12T06:15:35.928Z,28.03
2018-05-12T06:18:03.441Z,26.60
2018-05-12T06:20:30.883Z,25.17
2018-05-12T06:22:58.347Z,23.13
2018-05-12T06:25:25.825Z,23.97
2018-05-12T06:27:53.365Z,24.37
2018-05-12T06:30:20.794Z,24.03
2018-05-12T06:32:48.272Z,23.40
2018-05-12T06:35:15.732Z,22.13
2018-05-12T06:37:43.188Z,21.80
2018-05-12T06:40:10.650Z,22.97
2018-05-12T06:42:38.130Z,26.20
2018-05-12T06:45:05.594Z,27.27
2018-05-12T06:47:33.103Z,22.07
2018-05-12T06:50:00.567Z,27.30
2018-05-12T06:52:28.176Z,24.90
2018-05-12T06:54:55.674Z,25.47
2018-05-12T06:57:23.151Z,23.13
2018-05-12T06:59:50.624Z,29.40
2018-05-12T07:02:18.118Z,24.40
2018-05-12T07:04:45.697Z,23.60
2018-05-12T07:07:13.174Z,24.80
2018-05-12T07:09:40.644Z,23.27
2018-05-12T07:12:08.195Z,26.27
2018-05-12T07:14:35.675Z,23.60
2018-05-12T07:17:03.122Z,25.30
2018-05-12T07:19:30.684Z,23.20
2018-05-12T07:21:58.078Z,24.27
2018-05-12T07:24:26.023Z,19.83
2018-05-12T07:26:53.607Z,23.60
2018-05-12T07:29:21.099Z,19.93
2018-05-12T07:31:48.565Z,21.70
2018-05-12T07:34:16.045Z,23.30
2018-05-12T07:36:43.572Z,23.73
2018-05-12T07:39:11.062Z,22.40
2018-05-12T07:41:39.631Z,25.47
2018-05-12T07:44:07.103Z,29.70
2018-05-12T07:46:34.578Z,21.13
2018-05-12T07:49:02.058Z,23.00
2018-05-12T07:51:29.562Z,22.93
2018-05-12T07:53:57.024Z,23.07
2018-05-12T07:56:24.483Z,23.70
2018-05-12T07:58:52.358Z,27.63
2018-05-12T08:01:20.154Z,23.07
2018-05-12T08:03:48.160Z,23.07
2018-05-12T08:06:15.683Z,21.80
2018-05-12T08:08:43.706Z,21.93
2018-05-12T08:11:11.173Z,25.37
2018-05-12T08:13:38.642Z,21.50
2018-05-12T08:16:06.164Z,22.77
2018-05-12T08:18:33.730Z,23.87
2018-05-12T08:21:02.753Z,22.90
2018-05-12T08:23:30.485Z,18.47
2018-05-12T08:25:58.180Z,19.13
2018-05-12T08:28:25.649Z,18.60
2018-05-12T08:30:53.281Z,19.13
2018-05-12T08:33:20.921Z,21.47
2018-05-12T08:35:48.441Z,18.93
2018-05-12T08:38:16.009Z,20.00
2018-05-12T08:40:44.143Z,20.60
2018-05-12T08:43:11.635Z,24.93
2018-05-12T08:45:39.163Z,24.40
2018-05-12T08:48:06.727Z,19.70
2018-05-12T08:50:34.300Z,18.47
2018-05-12T08:53:01.852Z,21.90
2018-05-12T08:55:29.459Z,18.20
2018-05-12T08:57:56.972Z,22.83
2018-05-12T09:00:24.449Z,20.43
2018-05-12T09:02:51.979Z,17.73
2018-05-12T09:05:20.120Z,21.33
2018-05-12T09:07:47.633Z,17.60
2018-05-12T09:10:15.143Z,23.70
2018-05-12T09:12:42.706Z,18.93
2018-05-12T09:15:10.247Z,20.80
2018-05-12T09:17:37.732Z,17.30
2018-05-12T09:20:06.881Z,17.07
2018-05-12T09:22:34.540Z,17.50
2018-05-12T09:25:02.235Z,22.03
2018-05-12T09:27:30.815Z,18.67
2018-05-12T09:29:58.305Z,16.10
2018-05-12T09:32:25.821Z,17.47
2018-05-12T09:34:53.325Z,16.03
2018-05-12T09:37:20.862Z,14.43
2018-05-12T09:39:48.316Z,13.90
2018-05-12T09:42:15.808Z,14.47
2018-05-12T09:44:43.317Z,17.03
2018-05-12T09:47:10.810Z,10.30
2018-05-12T09:49:38.285Z,11.63
2018-05-12T09:52:05.800Z,16.03
2018-05-12T09:54:33.270Z,16.17
2018-05-12T09:57:02.516Z,12.60
2018-05-12T09:59:29.975Z,12.10
2018-05-12T10:01:57.521Z,12.87
2018-05-12T10:04:25.034Z,17.27
2018-05-12T10:06:52.503Z,15.87
2018-05-12T10:09:20.068Z,9.30
2018-05-12T10:11:47.611Z,16.93
2018-05-12T10:14:15.149Z,10.80
2018-05-12T10:16:42.660Z,14.20
2018-05-12T10:19:10.156Z,12.17
2018-05-12T10:21:38.793Z,14.03
2018-05-12T10:24:06.315Z,18.00
2018-05-12T10:26:33.862Z,14.67
2018-05-12T10:29:01.355Z,15.00
2018-05-12T10:31:28.847Z,13.90
2018-05-12T10:33:56.337Z,13.50
2018-05-12T10:36:23.799Z,12.67
2018-05-12T10:38:51.339Z,10.57
2018-05-12T10:41:18.818Z,14.27
2018-05-12T10:43:46.320Z,10.07
2018-05-12T10:46:13.838Z,11.57
2018-05-12T10:48:41.330Z,13.70
2018-05-12T10:51:08.799Z,13.50
2018-05-12T10:53:40.302Z,18.63
2018-05-12T10:56:07.776Z,12.63
2018-05-12T10:58:35.246Z,11.50
2018-05-12T11:01:02.740Z,13.50
2018-05-12T11:03:30.210Z,13.77
2018-05-12T11:05:57.686Z,10.03
2018-05-12T11:08:25.183Z,12.27
2018-05-12T11:10:52.682Z,15.93
2018-05-12T11:13:20.174Z,20.60
2018-05-12T11:15:47.753Z,9.43
2018-05-12T11:18:15.134Z,10.40
2018-05-12T11:20:42.639Z,9.33
2018-05-12T11:23:10.124Z,8.60
2018-05-12T11:25:37.617Z,8.57
2018-05-12T11:28:05.087Z,8.73
2018-05-12T11:30:32.578Z,8.17
2018-05-12T11:33:00.039Z,9.10
2018-05-12T11:35:27.811Z,7.80
2018-05-12T11:37:55.273Z,8.53
2018-05-12T11:40:22.730Z,14.70
2018-05-12T11:42:50.215Z,7.93
2018-05-12T11:45:17.694Z,9.37
2018-05-12T11:47:45.175Z,14.63
2018-05-12T11:50:12.768Z,14.60
2018-05-12T11:52:40.188Z,10.90
2018-05-12T11:55:08.259Z,9.70
2018-05-12T11:57:35.751Z,9.27
2018-05-12T12:00:03.233Z,9.80
2018-05-12T12:02:30.757Z,16.50
2018-05-12T12:04:58.193Z,14.50
2018-05-12T12:07:25.695Z,15.60
2018-05-12T12:09:53.162Z,11.80
2018-05-12T12:12:20.684Z,16.63
2018-05-12T12:14:48.164Z,10.00
2018-05-12T12:17:16.274Z,9.70
2018-05-12T12:19:43.763Z,8.33
2018-05-12T12:22:11.322Z,9.77
2018-05-12T12:24:38.831Z,12.20
2018-05-12T12:27:06.727Z,9.07
2018-05-12T12:29:34.234Z,13.83
2018-05-12T12:32:01.715Z,12.63
2018-05-12T12:34:29.185Z,7.93
2018-05-12T12:36:58.084Z,10.63
2018-05-12T12:39:25.563Z,7.77
2018-05-12T12:41:53.025Z,8.33
2018-05-12T12:44:20.515Z,8.77
2018-05-12T12:46:47.991Z,8.40
2018-05-12T12:49:15.508Z,13.37
2018-05-12T12:51:43.076Z,8.20
2018-05-12T12:54:10.468Z,7.70
2018-05-12T12:56:37.964Z,6.83
2018-05-12T12:59:05.765Z,12.50
2018-05-12T13:01:33.281Z,12.43
2018-05-12T13:04:00.736Z,6.93
2018-05-12T13:06:28.215Z,6.87
2018-05-12T13:08:55.690Z,6.33
2018-05-12T13:11:23.203Z,6.00
2018-05-12T13:26:45.698Z,7.80
2018-05-12T13:29:13.175Z,4.83
2018-05-12T13:31:40.647Z,5.70
2018-05-12T13:34:08.125Z,6.50
2018-05-12T13:36:35.664Z,6.37
2018-05-12T13:39:03.185Z,8.10
2018-05-12T13:41:30.672Z,6.90
2018-05-12T13:43:58.128Z,6.97
2018-05-12T13:46:25.736Z,6.17
2018-05-12T13:48:53.563Z,5.83
2018-05-12T13:51:23.110Z,10.60
2018-05-12T13:53:50.631Z,6.83
2018-05-12T13:56:18.320Z,8.63
2018-05-12T13:58:45.774Z,6.10
2018-05-12T14:01:13.238Z,7.80
2018-05-12T14:03:40.711Z,5.70
2018-05-12T14:06:08.204Z,6.67
2018-05-12T14:08:35.739Z,6.63
2018-05-12T14:11:03.232Z,5.40
2018-05-12T14:13:30.771Z,7.17
2018-05-12T14:15:58.179Z,5.57
2018-05-12T14:18:26.294Z,6.37
2018-05-12T14:20:53.801Z,12.90
2018-05-12T14:23:21.274Z,6.17
2018-05-12T14:25:48.850Z,8.80
2018-05-12T14:28:16.359Z,7.43
2018-05-12T14:30:43.819Z,6.47
2018-05-12T14:33:11.325Z,7.10
2018-05-12T14:35:38.920Z,8.57
2018-05-12T14:38:06.417Z,7.10
2018-05-12T14:40:33.884Z,5.80
2018-05-12T14:43:01.452Z,8.43
2018-05-12T14:45:28.924Z,6.10
2018-05-12T14:47:56.480Z,6.43
2018-05-12T14:50:23.950Z,10.33
2018-05-12T14:52:51.452Z,7.27
2018-05-12T14:55:18.939Z,5.77
2018-05-12T14:57:46.408Z,6.90
2018-05-12T15:00:13.929Z,6.37
2018-05-12T15:02:41.609Z,7.30
2018-05-12T15:05:09.091Z,5.67
2018-05-12T15:07:36.563Z,6.37
2018-05-12T15:10:04.047Z,7.53
2018-05-12T15:12:31.513Z,4.97
2018-05-12T15:14:59.053Z,5.03
2018-05-12T15:17:26.540Z,5.07
2018-05-12T15:19:54.025Z,5.00
2018-05-12T15:22:21.508Z,5.03
2018-05-12T15:24:49.006Z,5.50
2018-05-12T15:27:16.485Z,5.20
2018-05-12T15:29:43.969Z,5.50
2018-05-12T15:32:11.472Z,4.80
2018-05-12T15:34:38.934Z,4.87
2018-05-12T15:37:06.434Z,5.50
2018-05-12T15:39:33.915Z,5.20
2018-05-12T15:42:01.370Z,5.60
2018-05-12T15:44:28.860Z,5.03
2018-05-12T15:46:56.312Z,6.20
2018-05-12T15:49:23.781Z,5.73
2018-05-12T15:51:51.245Z,4.93
2018-05-12T15:54:18.726Z,5.47
2018-05-12T15:56:46.531Z,5.60
2018-05-12T15:59:14.006Z,7.23
2018-05-12T16:01:41.495Z,5.00
2018-05-12T16:04:08.958Z,5.80
2018-05-12T16:06:36.420Z,6.00
2018-05-12T16:09:05.094Z,6.93
2018-05-12T16:11:32.562Z,5.20
2018-05-12T16:14:00.035Z,4.67
2018-05-12T16:16:27.511Z,4.70
2018-05-12T16:18:54.970Z,4.32
2018-05-12T16:21:22.423Z,6.43
2018-05-12T16:23:49.913Z,4.28
2018-05-12T16:26:17.375Z,6.28
2018-05-12T16:28:44.866Z,5.27
2018-05-12T16:31:12.436Z,6.97
2018-05-12T16:33:39.884Z,6.37
2018-05-12T16:36:07.407Z,8.13
2018-05-12T16:38:34.891Z,4.93
2018-05-12T16:41:02.423Z,7.03
2018-05-12T16:43:29.890Z,5.53
2018-05-12T16:45:57.355Z,4.70
2018-05-12T16:48:24.855Z,7.83
2018-05-12T16:50:52.466Z,7.47
2018-05-12T16:53:19.897Z,14.47
2018-05-12T16:55:47.377Z,6.87
2018-05-12T16:58:14.857Z,5.50
2018-05-12T17:00:42.327Z,11.47
2018-05-12T17:03:09.884Z,12.10
2018-05-12T17:05:37.573Z,8.60
2018-05-12T17:08:05.039Z,5.53
2018-05-12T17:10:32.537Z,8.33
2018-05-12T17:13:00.649Z,7.63
2018-05-12T17:15:28.130Z,9.23
2018-05-12T17:17:56.163Z,5.07
2018-05-12T17:20:23.629Z,12.30
2018-05-12T17:22:51.129Z,8.30
2018-05-12T17:25:18.610Z,8.80
2018-05-12T17:27:46.091Z,9.33
2018-05-12T17:30:13.556Z,10.37
2018-05-12T17:32:41.021Z,7.57
2018-05-12T17:35:08.504Z,8.57
2018-05-12T17:37:35.963Z,9.60
2018-05-12T17:40:03.454Z,6.67
2018-05-12T17:42:30.947Z,5.57
2018-05-12T17:44:58.471Z,6.93
2018-05-12T17:47:25.938Z,13.27
2018-05-12T17:49:53.429Z,9.40
2018-05-12T17:52:20.988Z,9.90
2018-05-12T17:54:48.506Z,11.63
2018-05-12T17:57:15.987Z,14.40
2018-05-12T17:59:43.453Z,7.60
2018-05-12T18:02:10.963Z,12.57
2018-05-12T18:04:38.427Z,7.90
2018-05-12T18:07:05.927Z,8.20
2018-05-12T18:09:34.003Z,7.83
2018-05-12T18:12:01.482Z,7.00
2018-05-12T18:14:28.967Z,9.10
2018-05-12T18:16:56.433Z,8.60
2018-05-12T18:19:23.891Z,11.43
2018-05-12T18:21:51.376Z,10.33
2018-05-12T18:24:18.844Z,10.10
2018-05-12T18:26:46.324Z,12.10
2018-05-12T18:29:13.810Z,11.00
2018-05-12T18:31:41.268Z,11.00
2018-05-12T18:34:08.740Z,10.43
2018-05-12T18:36:36.232Z,14.20
2018-05-12T18:39:03.739Z,8.60
2018-05-12T18:41:31.199Z,8.57
2018-05-12T18:43:58.659Z,11.33
2018-05-12T18:46:26.140Z,11.40
2018-05-12T18:48:53.618Z,8.43
2018-05-12T18:51:22.071Z,17.87
2018-05-12T18:53:49.607Z,9.20
2018-05-12T18:56:18.618Z,20.30
2018-05-12T18:58:46.101Z,14.87
2018-05-12T19:01:13.638Z,8.37
2018-05-12T19:03:41.176Z,10.93
2018-05-12T19:06:08.731Z,8.60
2018-05-12T19:08:36.250Z,11.03
2018-05-12T19:11:03.778Z,11.73
2018-05-12T19:13:31.268Z,10.90
2018-05-12T19:15:58.814Z,11.83
2018-05-12T19:18:27.268Z,9.27
2018-05-12T19:20:54.789Z,7.60
2018-05-12T19:23:22.289Z,13.53
2018-05-12T19:25:49.810Z,9.00
2018-05-12T19:28:17.479Z,14.23
2018-05-12T19:30:44.969Z,12.10
2018-05-12T19:33:12.494Z,11.10
2018-05-12T19:35:39.992Z,12.60
2018-05-12T19:38:07.525Z,13.53
2018-05-12T19:40:35.145Z,10.90
2018-05-12T19:43:02.640Z,7.73
2018-05-12T19:45:30.360Z,11.80
2018-05-12T19:47:58.308Z,7.90
2018-05-12T19:50:26.122Z,7.13
2018-05-12T19:52:53.650Z,7.43
2018-05-12T19:55:21.929Z,18.13
2018-05-12T20:10:52.665Z,9.57
2018-05-12T20:13:21.095Z,12.60
2018-05-12T20:15:48.677Z,7.70
2018-05-12T20:18:16.263Z,12.23
2018-05-12T20:20:43.788Z,9.03
2018-05-12T20:23:11.405Z,10.43
2018-05-12T20:25:39.001Z,9.20
2018-05-12T20:28:06.419Z,9.13
2018-05-12T20:30:34.387Z,8.57
2018-05-12T20:33:02.282Z,11.93
2018-05-12T20:48:31.118Z,11.30
2018-05-12T20:50:58.682Z,14.80
2018-05-12T20:53:26.250Z,12.93
2018-05-12T20:55:53.806Z,18.97
2018-05-12T20:58:21.360Z,16.27
2018-05-12T21:00:48.939Z,18.90
2018-05-12T21:03:16.456Z,17.40
2018-05-12T21:05:44.016Z,17.90
2018-05-12T21:08:11.559Z,25.73
2018-05-12T21:10:39.062Z,15.10
2018-05-12T21:13:06.566Z,18.47
2018-05-12T21:15:34.065Z,17.60
2018-05-12T21:18:01.571Z,17.07
2018-05-12T21:20:29.073Z,17.17
2018-05-12T21:23:03.413Z,15.83
2018-05-12T21:25:31.204Z,17.90
2018-05-12T21:27:58.685Z,19.70
2018-05-12T21:30:26.212Z,16.23
2018-05-12T21:32:53.712Z,15.60
2018-05-12T21:35:21.308Z,15.60
2018-05-12T21:37:48.848Z,18.20
2018-05-12T21:40:16.359Z,20.13
2018-05-12T21:42:43.900Z,15.07
2018-05-12T21:45:12.315Z,19.40
2018-05-12T21:47:39.963Z,21.90
2018-05-12T21:50:07.498Z,24.37
2018-05-12T21:52:35.120Z,14.70
2018-05-12T21:55:02.631Z,14.37
2018-05-12T21:57:30.127Z,11.90
2018-05-12T22:02:31.284Z,15.77
2018-05-12T22:04:58.814Z,15.50
2018-05-12T22:07:26.395Z,14.93
2018-05-12T22:09:53.903Z,16.60
2018-05-12T22:12:21.476Z,15.10
2018-05-12T22:14:48.986Z,11.57
2018-05-12T22:17:16.562Z,13.47
2018-05-12T22:19:44.089Z,18.27
2018-05-12T22:22:11.639Z,20.10
2018-05-12T22:24:39.169Z,19.20
2018-05-12T22:27:06.656Z,14.77
2018-05-12T22:29:34.301Z,10.57
2018-05-12T22:32:01.804Z,10.83
2018-05-12T22:34:29.594Z,11.80
2018-05-12T22:36:57.104Z,11.60
2018-05-12T22:39:24.607Z,12.43
2018-05-12T22:41:52.859Z,12.47
2018-05-12T22:44:20.356Z,10.80
2018-05-12T22:46:47.936Z,10.67
2018-05-12T22:49:15.423Z,12.53
2018-05-12T22:51:42.941Z,10.97
2018-05-12T22:54:10.430Z,15.47
2018-05-12T22:56:37.964Z,12.30
2018-05-12T22:59:05.467Z,16.73
2018-05-12T23:01:32.961Z,15.80
2018-05-12T23:04:00.485Z,12.13
2018-05-12T23:06:27.976Z,22.17
2018-05-12T23:08:55.469Z,12.10
2018-05-12T23:11:22.946Z,13.33
2018-05-12T23:13:50.470Z,13.20
2018-05-12T23:16:17.936Z,12.77
2018-05-12T23:18:45.423Z,16.20
2018-05-12T23:21:12.871Z,15.17
2018-05-12T23:23:40.337Z,13.77
2018-05-12T23:26:07.890Z,16.17
2018-05-12T23:28:35.417Z,14.10
2018-05-12T23:31:02.903Z,18.60
2018-05-12T23:33:30.465Z,17.90
2018-05-12T23:35:57.942Z,15.37
2018-05-12T23:38:25.442Z,14.90
2018-05-12T23:40:52.918Z,20.50
2018-05-12T23:43:20.384Z,16.70
2018-05-12T23:45:47.867Z,16.90
2018-05-12T23:48:15.340Z,16.30
2018-05-12T23:50:42.846Z,19.30
2018-05-12T23:53:10.396Z,15.10
2018-05-12T23:55:38.215Z,19.80
2018-05-12T23:58:05.696Z,18.87
